Time;durP1;ratioP1;P1;durP2;ratioP2;P2;SDS_P1;SDS_P2;PMS_P1;PMS_P2;Temp;Humidity;BMP_temperature;BMP_pressure;BME280_temperature;BME280_humidity;BME280_pressure;Samples;Min_cycle;Max_cycle;Signal;HPM_P1;HPM_P2
2023/06/14 00:01:38;;;;;;;7.50;5.00;;;;;;;9.40;86.92;98478.61;105020;1256;96722;-68
2023/06/14 00:04:05;;;;;;;7.20;5.00;;;;;;;9.40;87.30;98479.83;105461;1261;97447;-66
2023/06/14 00:06:33;;;;;;;8.50;5.60;;;;;;;9.40;87.49;98476.94;104960;1260;96573;-66
2023/06/14 00:09:01;;;;;;;7.70;5.10;;;;;;;9.42;87.80;98475.79;104903;1263;96549;-66
2023/06/14 00:11:28;;;;;;;8.10;5.70;;;;;;;9.41;87.62;98471.69;104687;1257;97970;-70
2023/06/14 00:13:55;;;;;;;8.60;5.40;;;;;;;9.38;87.98;98472.48;104695;1261;96578;-66
2023/06/14 00:16:22;;;;;;;9.00;5.60;;;;;;;9.33;88.92;98474.56;104851;1267;97851;-66
2023/06/14 00:18:51;;;;;;;10.30;5.80;;;;;;;9.25;89.07;98473.83;105017;1260;97874;-65
2023/06/14 00:21:19;;;;;;;10.10;5.40;;;;;;;9.19;89.60;98475.29;104974;1262;108333;-65
2023/06/14 00:23:46;;;;;;;9.00;5.50;;;;;;;9.13;90.07;98478.04;104977;1261;96616;-65
2023/06/14 00:26:13;;;;;;;10.50;5.80;;;;;;;9.07;90.89;98476.54;104882;1262;97870;-65
2023/06/14 00:28:41;;;;;;;12.70;7.10;;;;;;;9.00;91.67;98474.46;104661;1263;97074;-65
2023/06/14 00:31:08;;;;;;;12.30;6.80;;;;;;;8.97;92.73;98473.86;104873;1263;97470;-66
2023/06/14 00:33:35;;;;;;;11.90;7.00;;;;;;;8.97;93.34;98476.16;104870;1271;96607;-67
2023/06/14 00:36:03;;;;;;;13.00;6.70;;;;;;;8.98;93.59;98479.09;104635;1261;97825;-66
2023/06/14 00:38:30;;;;;;;10.40;6.20;;;;;;;9.00;93.63;98477.62;104744;1260;96631;-64
2023/06/14 00:40:57;;;;;;;10.80;7.00;;;;;;;9.05;94.04;98479.71;104942;1263;96726;-68
2023/06/14 00:43:25;;;;;;;14.10;7.30;;;;;;;9.09;94.02;98479.22;104699;1263;97064;-66
2023/06/14 00:45:52;;;;;;;14.60;6.80;;;;;;;9.15;93.86;98485.81;104703;1263;97355;-66
2023/06/14 00:48:20;;;;;;;12.50;7.40;;;;;;;9.24;93.61;98481.89;104940;1261;96664;-66
2023/06/14 00:50:49;;;;;;;13.70;8.00;;;;;;;9.32;93.76;98480.73;104960;1263;97041;-66
2023/06/14 00:53:20;;;;;;;11.50;7.10;;;;;;;9.38;93.60;98479.65;104959;1261;110761;-65
2023/06/14 00:55:47;;;;;;;10.30;6.40;;;;;;;9.46;93.56;98479.06;104844;1257;99407;-65
2023/06/14 00:58:16;;;;;;;10.40;6.10;;;;;;;9.51;94.56;98477.11;104994;1260;96595;-65
2023/06/14 01:00:44;;;;;;;12.40;7.30;;;;;;;9.54;94.34;98476.80;104646;1263;96828;-66
2023/06/14 01:03:12;;;;;;;12.50;7.20;;;;;;;9.58;93.81;98473.48;104681;1261;98358;-67
2023/06/14 01:05:40;;;;;;;12.20;7.00;;;;;;;9.62;93.91;98476.17;104764;1268;109593;-70
2023/06/14 01:08:23;;;;;;;13.30;7.40;;;;;;;9.63;94.40;98473.19;104690;1267;100400;-66
2023/06/14 01:10:59;;;;;;;10.60;6.60;;;;;;;9.64;94.16;98474.04;104749;1262;108388;-67
2023/06/14 01:13:35;;;;;;;11.20;7.20;;;;;;;9.68;94.03;98473.46;104633;1263;96624;-67
2023/06/14 01:16:05;;;;;;;11.80;7.80;;;;;;;9.78;93.56;98473.10;104996;1261;97877;-67
2023/06/14 01:18:33;;;;;;;12.60;6.50;;;;;;;9.91;92.96;98474.67;104977;1260;110553;-67
2023/06/14 01:21:05;;;;;;;13.90;7.80;;;;;;;9.98;92.99;98470.11;104849;1263;98367;-68
2023/06/14 01:23:33;;;;;;;13.00;7.10;;;;;;;10.06;93.08;98471.47;104835;1263;107975;-68
2023/06/14 01:26:03;;;;;;;14.50;7.80;;;;;;;10.08;93.00;98473.45;104881;1257;96724;-67
2023/06/14 01:28:33;;;;;;;12.60;7.80;;;;;;;10.11;93.18;98473.30;104843;1263;97710;-68
2023/06/14 01:31:05;;;;;;;14.20;8.50;;;;;;;10.12;92.69;98472.83;104930;1262;110926;-70
2023/06/14 01:33:34;;;;;;;12.40;7.10;;;;;;;10.16;92.28;98470.83;104703;1263;98184;-66
2023/06/14 01:36:05;;;;;;;12.90;7.60;;;;;;;10.20;92.21;98467.89;104951;1260;108765;-66
2023/06/14 01:38:33;;;;;;;11.90;7.30;;;;;;;10.15;92.65;98467.64;104946;1262;97954;-66
2023/06/14 01:41:02;;;;;;;12.20;6.80;;;;;;;10.09;93.01;98468.30;104679;1256;97823;-66
2023/06/14 01:43:31;;;;;;;12.10;7.40;;;;;;;10.01;93.21;98468.08;104948;1263;109492;-66
2023/06/14 01:45:59;;;;;;;12.60;7.80;;;;;;;9.95;93.42;98466.55;104867;1263;97852;-67
2023/06/14 01:48:27;;;;;;;14.10;7.10;;;;;;;9.89;93.15;98470.06;104608;1264;107699;-66
2023/06/14 01:50:54;;;;;;;14.40;8.50;;;;;;;9.89;93.21;98468.11;104756;1263;96634;-66
2023/06/14 01:53:22;;;;;;;13.80;7.80;;;;;;;9.91;93.23;98463.33;104592;1264;96971;-67
2023/06/14 01:55:49;;;;;;;10.30;6.10;;;;;;;9.92;93.27;98459.45;104851;1261;110786;-65
2023/06/14 01:58:16;;;;;;;11.90;7.90;;;;;;;9.91;93.59;98458.58;104782;1256;96636;-66
2023/06/14 02:00:44;;;;;;;12.60;8.00;;;;;;;9.94;93.77;98460.60;104808;1262;96470;-66
2023/06/14 02:03:12;;;;;;;13.00;7.30;;;;;;;9.99;94.02;98459.49;104906;1262;96649;-66
2023/06/14 02:05:40;;;;;;;11.70;7.10;;;;;;;9.97;93.67;98458.16;104749;1262;97726;-66
2023/06/14 02:08:07;;;;;;;12.40;7.50;;;;;;;-100.41;17.96;19690.08;103283;1256;1002957;-65
2023/06/14 02:10:35;;;;;;;12.90;7.60;;;;;;;-128.00;-1.00;-1.00;103045;1256;1012897;-64
2023/06/14 02:13:03;;;;;;;10.20;6.90;;;;;;;-128.00;-1.00;-1.00;103078;1256;1002963;-65
2023/06/14 02:15:33;;;;;;;13.70;7.60;;;;;;;-128.00;-1.00;-1.00;103042;1260;1002500;-65
2023/06/14 02:18:04;;;;;;;;;;;;;;;-128.00;-1.00;-1.00;103080;1260;1011154;-64
2023/06/14 02:20:31;;;;;;;13.50;5.60;;;;;;;-128.00;-1.00;-1.00;103052;1257;1012996;-64
2023/06/14 02:22:59;;;;;;;12.10;7.00;;;;;;;-128.00;-1.00;-1.00;102904;1256;1002135;-65
2023/06/14 02:25:27;;;;;;;12.40;7.20;;;;;;;-128.00;-1.00;-1.00;102724;1256;1002639;-71
2023/06/14 02:27:55;;;;;;;12.50;6.60;;;;;;;-128.00;-1.00;-1.00;102768;1260;1009796;-66
2023/06/14 02:30:22;;;;;;;14.40;8.20;;;;;;;-128.00;-1.00;-1.00;102926;1256;1003381;-68
2023/06/14 02:32:51;;;;;;;14.20;8.10;;;;;;;-128.00;-1.00;-1.00;103038;1257;1002131;-66
2023/06/14 02:35:18;;;;;;;14.00;8.00;;;;;;;-128.00;-1.00;-1.00;103085;1256;1003541;-68
2023/06/14 02:37:45;;;;;;;15.20;8.20;;;;;;;-128.00;-1.00;-1.00;103078;1257;1003436;-67
2023/06/14 02:40:12;;;;;;;11.80;7.40;;;;;;;-128.00;-1.00;-1.00;103071;1262;1002940;-66
2023/06/14 02:42:40;;;;;;;14.50;7.70;;;;;;;-128.00;-1.00;-1.00;103088;1261;1002776;-66
2023/06/14 02:45:08;;;;;;;14.60;8.10;;;;;;;-128.00;-1.00;-1.00;103027;1256;1004177;-66
2023/06/14 02:47:35;;;;;;;12.00;7.80;;;;;;;-128.00;-1.00;-1.00;103046;1256;1014203;-66
2023/06/14 02:50:04;;;;;;;9.50;5.70;;;;;;;-128.00;-1.00;-1.00;103060;1256;1002827;-65
2023/06/14 02:52:33;;;;;;;12.30;7.40;;;;;;;-128.00;-1.00;-1.00;103089;1261;1003294;-68
2023/06/14 02:55:00;;;;;;;12.30;8.00;;;;;;;-128.00;-1.00;-1.00;103097;1256;1011414;-66
2023/06/14 02:57:27;;;;;;;13.50;8.70;;;;;;;-128.00;-1.00;-1.00;103071;1256;1002749;-65
2023/06/14 02:59:55;;;;;;;13.40;8.00;;;;;;;-128.00;-1.00;-1.00;103072;1256;1003137;-66
2023/06/14 03:02:22;;;;;;;11.30;6.40;;;;;;;-128.00;-1.00;-1.00;103063;1255;1002558;-66
2023/06/14 03:04:50;;;;;;;12.90;7.30;;;;;;;-128.00;-1.00;-1.00;103091;1261;1002665;-65
2023/06/14 03:07:19;;;;;;;15.40;8.30;;;;;;;-128.00;-1.00;-1.00;103071;1260;1002962;-65
2023/06/14 03:09:49;;;;;;;14.40;8.60;;;;;;;-128.00;-1.00;-1.00;103076;1257;1012752;-65
2023/06/14 03:12:16;;;;;;;14.40;9.10;;;;;;;-128.00;-1.00;-1.00;103043;1256;1012540;-65
2023/06/14 03:14:45;;;;;;;13.80;8.50;;;;;;;-128.00;-1.00;-1.00;103015;1256;1002537;-65
2023/06/14 03:17:13;;;;;;;13.90;7.70;;;;;;;-128.00;-1.00;-1.00;103059;1262;1010330;-67
2023/06/14 03:19:41;;;;;;;12.90;7.40;;;;;;;-128.00;-1.00;-1.00;103081;1262;1002205;-70
2023/06/14 03:22:08;;;;;;;13.10;7.50;;;;;;;-128.00;-1.00;-1.00;103062;1260;1002879;-65
2023/06/14 03:24:36;;;;;;;16.20;9.30;;;;;;;-128.00;-1.00;-1.00;103052;1256;1002860;-65
2023/06/14 03:27:04;;;;;;;13.40;8.60;;;;;;;-128.00;-1.00;-1.00;103075;1260;1013276;-65
2023/06/14 03:29:32;;;;;;;12.90;8.50;;;;;;;-128.00;-1.00;-1.00;102923;1256;1010009;-65
2023/06/14 03:32:03;;;;;;;16.00;8.90;;;;;;;-128.00;-1.00;-1.00;103037;1262;1003129;-64
2023/06/14 03:34:30;;;;;;;;;;;;;;;-128.00;-1.00;-1.00;103063;1261;1012376;-64
2023/06/14 03:36:57;;;;;;;11.60;7.60;;;;;;;-128.00;-1.00;-1.00;103049;1256;1002636;-65
2023/06/14 03:39:24;;;;;;;14.00;8.50;;;;;;;-128.00;-1.00;-1.00;103047;1256;1003470;-62
2023/06/14 03:41:51;;;;;;;12.90;8.30;;;;;;;-128.00;-1.00;-1.00;103043;1256;1004801;-63
2023/06/14 03:44:19;;;;;;;14.10;8.00;;;;;;;-128.00;-1.00;-1.00;103037;1262;1002982;-63
2023/06/14 03:46:46;;;;;;;15.30;8.30;;;;;;;-128.00;-1.00;-1.00;102883;1260;1002537;-63
2023/06/14 03:49:13;;;;;;;15.80;9.30;;;;;;;-128.00;-1.00;-1.00;102884;1261;1002680;-70
2023/06/14 03:51:41;;;;;;;16.00;9.60;;;;;;;-128.00;-1.00;-1.00;102852;1257;1002012;-65
2023/06/14 03:54:08;;;;;;;14.90;8.70;;;;;;;-128.00;-1.00;-1.00;102986;1262;1004871;-66
2023/06/14 03:56:38;;;;;;;17.00;8.70;;;;;;;-128.00;-1.00;-1.00;102969;1261;1011040;-66
2023/06/14 03:59:05;;;;;;;14.50;8.50;;;;;;;-128.00;-1.00;-1.00;103060;1260;1002356;-66
2023/06/14 04:01:33;;;;;;;12.00;6.50;;;;;;;-128.00;-1.00;-1.00;103050;1259;1003180;-66
2023/06/14 04:04:00;;;;;;;12.70;7.50;;;;;;;-128.00;-1.00;-1.00;102962;1256;1012902;-69
2023/06/14 04:06:31;;;;;;;13.80;8.30;;;;;;;-128.00;-1.00;-1.00;103082;1261;1002842;-67
2023/06/14 04:09:03;;;;;;;13.70;8.40;;;;;;;-128.00;-1.00;-1.00;103041;1262;1010381;-65
2023/06/14 04:11:31;;;;;;;15.30;8.10;;;;;;;-128.00;-1.00;-1.00;103041;1260;1012779;-68
2023/06/14 04:13:59;;;;;;;13.80;7.40;;;;;;;-128.00;-1.00;-1.00;103039;1260;1003125;-65
2023/06/14 04:16:28;;;;;;;17.10;10.00;;;;;;;-128.00;-1.00;-1.00;103078;1256;1003461;-64
2023/06/14 04:19:03;;;;;;;15.50;9.10;;;;;;;-128.00;-1.00;-1.00;102993;1262;1009759;-64
2023/06/14 04:21:30;;;;;;;16.30;9.10;;;;;;;-128.00;-1.00;-1.00;103117;1256;1004209;-65
2023/06/14 04:23:57;;;;;;;18.80;9.80;;;;;;;-128.00;-1.00;-1.00;103170;1256;1003119;-64
2023/06/14 04:26:29;;;;;;;17.50;10.00;;;;;;;-128.00;-1.00;-1.00;103089;1256;1004173;-64
2023/06/14 04:29:01;;;;;;;16.80;9.90;;;;;;;-128.00;-1.00;-1.00;103058;1256;1012249;-65
2023/06/14 04:31:33;;;;;;;17.20;10.30;;;;;;;-128.00;-1.00;-1.00;103087;1262;1010526;-66
2023/06/14 04:34:00;;;;;;;15.90;10.30;;;;;;;-128.00;-1.00;-1.00;103035;1257;1011352;-65
2023/06/14 04:36:27;;;;;;;14.90;9.70;;;;;;;-128.00;-1.00;-1.00;103061;1262;1004899;-65
2023/06/14 04:38:55;;;;;;;16.50;9.80;;;;;;;-128.00;-1.00;-1.00;103071;1258;1003310;-65
2023/06/14 04:41:22;;;;;;;15.50;9.00;;;;;;;-128.00;-1.00;-1.00;103144;1260;1002720;-66
2023/06/14 04:43:50;;;;;;;15.50;8.70;;;;;;;-128.00;-1.00;-1.00;103108;1260;1002912;-66
2023/06/14 04:46:17;;;;;;;13.90;8.30;;;;;;;-128.00;-1.00;-1.00;103085;1256;1002670;-65
2023/06/14 04:48:45;;;;;;;11.10;7.40;;;;;;;-128.00;-1.00;-1.00;103098;1260;1004225;-65
2023/06/14 04:51:13;;;;;;;14.00;8.40;;;;;;;-128.00;-1.00;-1.00;103087;1256;1012867;-65
2023/06/14 04:53:40;;;;;;;14.60;8.80;;;;;;;-128.00;-1.00;-1.00;103080;1261;1003066;-66
2023/06/14 04:56:07;;;;;;;15.50;9.20;;;;;;;-128.00;-1.00;-1.00;103077;1260;1002802;-66
2023/06/14 04:58:34;;;;;;;15.70;9.90;;;;;;;-128.00;-1.00;-1.00;103057;1261;1002958;-66
2023/06/14 05:01:02;;;;;;;14.60;9.40;;;;;;;-128.00;-1.00;-1.00;103023;1260;1003654;-67
2023/06/14 05:03:30;;;;;;;15.00;9.30;;;;;;;-128.00;-1.00;-1.00;103081;1256;1012448;-66
2023/06/14 05:05:57;;;;;;;15.40;9.40;;;;;;;-128.00;-1.00;-1.00;103159;1257;1002570;-68
2023/06/14 05:08:25;;;;;;;16.20;9.60;;;;;;;-128.00;-1.00;-1.00;103062;1262;1003027;-68
2023/06/14 05:10:53;;;;;;;15.70;8.80;;;;;;;-128.00;-1.00;-1.00;102823;1256;1002775;-68
2023/06/14 05:13:21;;;;;;;15.00;9.10;;;;;;;-128.00;-1.00;-1.00;102935;1261;1004269;-72
2023/06/14 05:15:49;;;;;;;11.40;8.10;;;;;;;-128.00;-1.00;-1.00;102797;1256;1012771;-70
2023/06/14 05:18:16;;;;;;;17.40;8.90;;;;;;;-128.00;-1.00;-1.00;102722;1256;1003073;-67
2023/06/14 05:20:43;;;;;;;13.60;8.10;;;;;;;-128.00;-1.00;-1.00;103272;1256;1002787;-68
2023/06/14 05:23:14;;;;;;;15.60;8.10;;;;;;;-128.00;-1.00;-1.00;103019;1260;1004845;-68
2023/06/14 05:25:44;;;;;;;15.50;8.70;;;;;;;-128.00;-1.00;-1.00;103066;1256;1012522;-68
2023/06/14 05:28:12;;;;;;;15.00;8.50;;;;;;;-128.00;-1.00;-1.00;103097;1256;1013840;-66
2023/06/14 05:30:39;;;;;;;16.20;9.10;;;;;;;-128.00;-1.00;-1.00;103077;1257;1003145;-66
2023/06/14 05:33:07;;;;;;;14.10;9.10;;;;;;;-128.00;-1.00;-1.00;103075;1256;1002849;-67
2023/06/14 05:35:34;;;;;;;14.60;8.90;;;;;;;-128.00;-1.00;-1.00;103072;1256;1003134;-69
2023/06/14 05:38:02;;;;;;;17.00;9.50;;;;;;;-128.00;-1.00;-1.00;103023;1260;1002536;-67
2023/06/14 05:40:29;;;;;;;16.00;9.50;;;;;;;-128.00;-1.00;-1.00;103021;1256;1003234;-69
2023/06/14 05:42:56;;;;;;;14.70;9.30;;;;;;;-128.00;-1.00;-1.00;102829;1256;1002819;-68
2023/06/14 05:45:23;;;;;;;16.30;10.20;;;;;;;-128.00;-1.00;-1.00;102725;1260;1002679;-68
2023/06/14 05:47:51;;;;;;;14.30;9.30;;;;;;;-128.00;-1.00;-1.00;102922;1260;1002382;-68
2023/06/14 05:50:18;;;;;;;16.20;10.10;;;;;;;-128.00;-1.00;-1.00;103034;1260;1002580;-68
2023/06/14 05:52:45;;;;;;;15.30;9.50;;;;;;;-128.00;-1.00;-1.00;103027;1261;1003334;-67
2023/06/14 05:55:12;;;;;;;15.00;9.80;;;;;;;-128.00;-1.00;-1.00;103048;1265;1002762;-67
2023/06/14 05:57:41;;;;;;;14.60;9.60;;;;;;;-128.00;-1.00;-1.00;103053;1262;1002316;-66
2023/06/14 06:00:14;;;;;;;16.70;10.50;;;;;;;-128.00;-1.00;-1.00;103052;1256;1002920;-67
2023/06/14 06:02:43;;;;;;;16.80;9.90;;;;;;;-128.00;-1.00;-1.00;103046;1258;1013612;-68
2023/06/14 06:05:12;;;;;;;17.60;10.50;;;;;;;-128.00;-1.00;-1.00;102954;1260;1012446;-67
2023/06/14 06:07:40;;;;;;;18.40;11.20;;;;;;;-128.00;-1.00;-1.00;102801;1256;1013778;-67
2023/06/14 06:10:08;;;;;;;18.00;10.30;;;;;;;-128.00;-1.00;-1.00;103006;1260;1003198;-67
2023/06/14 06:12:35;;;;;;;21.60;10.70;;;;;;;-128.00;-1.00;-1.00;103041;1262;1002417;-67
2023/06/14 06:15:03;;;;;;;16.50;9.80;;;;;;;-128.00;-1.00;-1.00;103008;1260;1002385;-67
2023/06/14 06:17:30;;;;;;;15.60;9.20;;;;;;;-128.00;-1.00;-1.00;103184;1256;1002975;-68
2023/06/14 06:20:18;;;;;;;17.10;9.90;;;;;;;-128.00;-1.00;-1.00;102980;1258;1014570;-67
2023/06/14 06:22:45;;;;;;;16.70;10.20;;;;;;;-128.00;-1.00;-1.00;103072;1256;1003289;-66
2023/06/14 06:25:13;;;;;;;15.30;10.00;;;;;;;-128.00;-1.00;-1.00;103042;1264;1004216;-67
2023/06/14 06:27:40;;;;;;;17.20;9.70;;;;;;;-128.00;-1.00;-1.00;103036;1262;1013937;-66
2023/06/14 06:30:08;;;;;;;16.40;10.70;;;;;;;-128.00;-1.00;-1.00;103117;1262;1002233;-68
2023/06/14 06:32:35;;;;;;;16.50;9.50;;;;;;;-128.00;-1.00;-1.00;102961;1261;1004120;-67
2023/06/14 06:35:06;;;;;;;16.80;10.20;;;;;;;-128.00;-1.00;-1.00;102725;1260;1002579;-66
2023/06/14 06:37:33;;;;;;;17.40;10.90;;;;;;;-128.00;-1.00;-1.00;102949;1260;1011507;-69
2023/06/14 06:40:00;;;;;;;17.50;10.30;;;;;;;-128.00;-1.00;-1.00;102806;1258;1002389;-70
2023/06/14 06:42:27;;;;;;;18.00;10.10;;;;;;;-128.00;-1.00;-1.00;102853;1257;1003287;-65
2023/06/14 06:44:54;;;;;;;18.40;10.80;;;;;;;-128.00;-1.00;-1.00;103054;1256;1004138;-66
2023/06/14 06:47:21;;;;;;;19.40;10.00;;;;;;;-128.00;-1.00;-1.00;103080;1262;1003543;-67
2023/06/14 06:49:49;;;;;;;16.00;10.10;;;;;;;-128.00;-1.00;-1.00;103073;1262;1003072;-66
2023/06/14 06:52:16;;;;;;;16.40;9.90;;;;;;;-128.00;-1.00;-1.00;103104;1256;1004404;-66
2023/06/14 06:54:44;;;;;;;20.30;10.60;;;;;;;-128.00;-1.00;-1.00;103054;1260;1002680;-67
2023/06/14 06:57:11;;;;;;;19.60;10.40;;;;;;;-128.00;-1.00;-1.00;102701;1258;1003723;-66
2023/06/14 06:59:38;;;;;;;21.30;12.20;;;;;;;-128.00;-1.00;-1.00;103031;1270;1002666;-66
2023/06/14 07:02:06;;;;;;;23.60;11.30;;;;;;;-128.00;-1.00;-1.00;102614;1261;1002932;-67
2023/06/14 07:04:33;;;;;;;20.80;11.60;;;;;;;-128.00;-1.00;-1.00;102764;1256;1002688;-66
2023/06/14 07:07:01;;;;;;;19.70;11.20;;;;;;;-128.00;-1.00;-1.00;103032;1256;1002730;-65
2023/06/14 07:09:28;;;;;;;21.00;12.20;;;;;;;-128.00;-1.00;-1.00;103047;1258;1002973;-66
2023/06/14 07:11:55;;;;;;;21.90;11.60;;;;;;;-128.00;-1.00;-1.00;103075;1261;1002497;-66
2023/06/14 07:14:23;;;;;;;22.00;12.10;;;;;;;-128.00;-1.00;-1.00;103087;1260;1003951;-66
2023/06/14 07:16:50;;;;;;;18.10;10.60;;;;;;;-128.00;-1.00;-1.00;103084;1260;1002835;-66
2023/06/14 07:19:17;;;;;;;22.80;11.40;;;;;;;-128.00;-1.00;-1.00;103077;1256;1002647;-68
2023/06/14 07:21:44;;;;;;;18.70;10.80;;;;;;;-128.00;-1.00;-1.00;103047;1255;1003018;-66
2023/06/14 07:24:11;;;;;;;19.00;10.90;;;;;;;-128.00;-1.00;-1.00;103081;1261;1002829;-65
2023/06/14 07:26:39;;;;;;;19.70;11.50;;;;;;;-128.00;-1.00;-1.00;103043;1260;1003142;-66
2023/06/14 07:29:06;;;;;;;22.90;12.20;;;;;;;-128.00;-1.00;-1.00;103094;1261;1002887;-67
2023/06/14 07:31:33;;;;;;;21.00;11.70;;;;;;;-128.00;-1.00;-1.00;103113;1256;1002820;-66
2023/06/14 07:34:01;;;;;;;19.90;11.70;;;;;;;-128.00;-1.00;-1.00;103030;1257;1003506;-66
2023/06/14 07:36:28;;;;;;;21.30;12.20;;;;;;;-128.00;-1.00;-1.00;103047;1261;1003380;-66
2023/06/14 07:38:55;;;;;;;18.10;11.20;;;;;;;-128.00;-1.00;-1.00;103060;1260;1002119;-67
2023/06/14 07:41:22;;;;;;;18.40;10.60;;;;;;;-128.00;-1.00;-1.00;103067;1270;1002824;-67
2023/06/14 07:43:49;;;;;;;15.70;9.80;;;;;;;-128.00;-1.00;-1.00;103046;1260;1004439;-64
2023/06/14 07:46:17;;;;;;;17.60;10.10;;;;;;;-128.00;-1.00;-1.00;103039;1256;1002732;-66
2023/06/14 07:48:44;;;;;;;17.90;10.70;;;;;;;-128.00;-1.00;-1.00;103057;1260;1003046;-67
2023/06/14 07:51:13;;;;;;;18.60;9.40;;;;;;;-128.00;-1.00;-1.00;103026;1261;1002355;-66
2023/06/14 07:53:43;;;;;;;17.90;9.60;;;;;;;-128.00;-1.00;-1.00;103067;1256;1013554;-66
2023/06/14 07:56:10;;;;;;;15.90;9.70;;;;;;;-128.00;-1.00;-1.00;103102;1260;1012325;-66
2023/06/14 07:58:37;;;;;;;17.80;10.70;;;;;;;-128.00;-1.00;-1.00;102754;1260;1002648;-68
2023/06/14 08:01:07;;;;;;;15.70;9.60;;;;;;;-128.00;-1.00;-1.00;102745;1265;1002596;-66
2023/06/14 08:03:35;;;;;;;16.10;9.80;;;;;;;-128.00;-1.00;-1.00;102940;1263;1011205;-75
2023/06/14 08:06:04;;;;;;;19.30;10.00;;;;;;;-128.00;-1.00;-1.00;103059;1257;1002776;-67
2023/06/14 08:08:31;;;;;;;13.70;9.30;;;;;;;-128.00;-1.00;-1.00;103147;1256;1013130;-66
2023/06/14 08:10:58;;;;;;;14.80;9.10;;;;;;;-128.00;-1.00;-1.00;103128;1261;1004446;-66
2023/06/14 08:13:26;;;;;;;15.90;9.50;;;;;;;-128.00;-1.00;-1.00;103075;1256;1002569;-66
2023/06/14 08:15:53;;;;;;;16.60;9.40;;;;;;;-128.00;-1.00;-1.00;103050;1260;1002535;-68
2023/06/14 08:18:21;;;;;;;17.90;10.80;;;;;;;-128.00;-1.00;-1.00;103071;1257;1002558;-66
2023/06/14 08:20:48;;;;;;;17.00;10.20;;;;;;;-128.00;-1.00;-1.00;103116;1259;1004133;-67
2023/06/14 08:23:18;;;;;;;17.50;10.80;;;;;;;-128.00;-1.00;-1.00;103059;1257;1003608;-66
2023/06/14 08:25:45;;;;;;;14.90;9.50;;;;;;;-128.00;-1.00;-1.00;103109;1260;1010064;-65
2023/06/14 08:28:13;;;;;;;15.30;8.90;;;;;;;-128.00;-1.00;-1.00;103076;1262;1002809;-65
2023/06/14 08:30:42;;;;;;;19.10;9.20;;;;;;;-128.00;-1.00;-1.00;103051;1262;1002486;-65
2023/06/14 08:33:09;;;;;;;12.50;8.00;;;;;;;-128.00;-1.00;-1.00;103071;1261;1012128;-65
2023/06/14 08:35:44;;;;;;;15.50;8.50;;;;;;;-128.00;-1.00;-1.00;103038;1260;1012708;-67
2023/06/14 08:38:12;;;;;;;13.10;8.50;;;;;;;-128.00;-1.00;-1.00;103093;1256;1009859;-66
2023/06/14 08:40:41;;;;;;;15.60;8.90;;;;;;;-128.00;-1.00;-1.00;103076;1257;1004498;-65
2023/06/14 08:43:10;;;;;;;16.90;9.10;;;;;;;-128.00;-1.00;-1.00;103064;1257;1012834;-66
2023/06/14 08:45:37;;;;;;;14.00;9.00;;;;;;;-128.00;-1.00;-1.00;103069;1256;1003086;-69
2023/06/14 08:48:08;;;;;;;14.70;9.10;;;;;;;-128.00;-1.00;-1.00;103076;1258;1002835;-72
2023/06/14 08:50:41;;;;;;;17.90;9.50;;;;;;;-128.00;-1.00;-1.00;103057;1260;1010600;-73
2023/06/14 08:53:13;;;;;;;16.40;9.50;;;;;;;-128.00;-1.00;-1.00;103063;1263;1010880;-73
2023/06/14 08:55:40;;;;;;;15.80;9.70;;;;;;;-128.00;-1.00;-1.00;103082;1260;1012830;-72
2023/06/14 08:58:09;;;;;;;18.00;10.30;;;;;;;-128.00;-1.00;-1.00;103033;1258;1012397;-68
2023/06/14 09:00:38;;;;;;;17.80;10.70;;;;;;;-128.00;-1.00;-1.00;102818;1260;1002949;-66
2023/06/14 09:03:13;;;;;;;20.60;11.30;;;;;;;-128.00;-1.00;-1.00;102901;1261;1010541;-67
2023/06/14 09:05:40;;;;;;;16.60;10.20;;;;;;;-128.00;-1.00;-1.00;103063;1260;1010151;-66
2023/06/14 09:08:07;;;;;;;19.10;11.20;;;;;;;-128.00;-1.00;-1.00;103077;1260;1002433;-66
2023/06/14 09:10:37;;;;;;;19.10;10.50;;;;;;;-128.00;-1.00;-1.00;103092;1260;1003147;-66
2023/06/14 09:13:05;;;;;;;18.70;11.50;;;;;;;-128.00;-1.00;-1.00;103029;1261;1013514;-66
2023/06/14 09:15:33;;;;;;;19.60;11.20;;;;;;;-128.00;-1.00;-1.00;103087;1257;1004324;-66
2023/06/14 09:18:01;;;;;;;18.70;11.10;;;;;;;-128.00;-1.00;-1.00;103061;1256;1011960;-66
2023/06/14 09:20:32;;;;;;;18.70;11.40;;;;;;;-128.00;-1.00;-1.00;102951;1257;1012552;-66
2023/06/14 09:23:13;;;;;;;16.80;10.60;;;;;;;-128.00;-1.00;-1.00;102879;1267;1013110;-70
2023/06/14 09:25:52;;;;;;;18.70;10.40;;;;;;;-128.00;-1.00;-1.00;102854;1260;1012714;-70
2023/06/14 09:28:30;;;;;;;20.50;11.70;;;;;;;-128.00;-1.00;-1.00;102982;1258;1010659;-69
2023/06/14 09:30:57;;;;;;;19.10;10.50;;;;;;;-128.00;-1.00;-1.00;103071;1260;1003091;-66
2023/06/14 09:33:26;;;;;;;17.90;10.60;;;;;;;-128.00;-1.00;-1.00;103067;1256;1002966;-65
2023/06/14 09:35:57;;;;;;;19.20;11.20;;;;;;;-128.00;-1.00;-1.00;103083;1261;1014061;-67
2023/06/14 09:38:25;;;;;;;18.80;11.70;;;;;;;-128.00;-1.00;-1.00;103090;1257;1013307;-67
2023/06/14 09:40:52;;;;;;;16.90;10.60;;;;;;;-128.00;-1.00;-1.00;103040;1256;1002764;-66
2023/06/14 09:43:21;;;;;;;17.90;11.00;;;;;;;-128.00;-1.00;-1.00;103050;1257;1003006;-66
2023/06/14 09:45:51;;;;;;;20.50;10.80;;;;;;;-128.00;-1.00;-1.00;103084;1256;1013436;-74
2023/06/14 09:48:19;;;;;;;19.00;10.90;;;;;;;-128.00;-1.00;-1.00;102914;1258;1011607;-71
2023/06/14 09:50:47;;;;;;;17.50;10.80;;;;;;;-128.00;-1.00;-1.00;102997;1257;1004461;-73
2023/06/14 09:53:16;;;;;;;18.30;11.50;;;;;;;-128.00;-1.00;-1.00;102883;1260;1009960;-75
2023/06/14 09:55:45;;;;;;;17.20;10.70;;;;;;;-128.00;-1.00;-1.00;103003;1261;1011430;-66
2023/06/14 09:58:16;;;;;;;17.80;11.00;;;;;;;-128.00;-1.00;-1.00;102815;1262;1012820;-71
2023/06/14 10:00:44;;;;;;;16.90;10.60;;;;;;;-128.00;-1.00;-1.00;102906;1257;1012458;-65
2023/06/14 10:03:29;;;;;;;15.50;9.80;;;;;;;-128.00;-1.00;-1.00;103037;1257;1013016;-68
2023/06/14 10:06:16;;;;;;;18.00;9.80;;;;;;;-128.00;-1.00;-1.00;103049;1260;1009720;-65
2023/06/14 10:08:45;;;;;;;14.80;9.90;;;;;;;-128.00;-1.00;-1.00;103061;1261;1010135;-66
2023/06/14 10:11:13;;;;;;;18.00;10.80;;;;;;;-128.00;-1.00;-1.00;102972;1260;1013075;-66
2023/06/14 10:13:41;;;;;;;14.30;10.00;;;;;;;-128.00;-1.00;-1.00;103077;1257;1012881;-69
2023/06/14 10:16:17;;;;;;;12.90;9.00;;;;;;;-128.00;-1.00;-1.00;102814;1257;1002213;-69
2023/06/14 10:19:02;;;;;;;14.40;9.30;;;;;;;-128.00;-1.00;-1.00;102990;1260;1010004;-72
2023/06/14 10:22:01;;;;;;;13.70;9.50;;;;;;;-128.00;-1.00;-1.00;103096;1260;1011530;-70
2023/06/14 10:24:45;;;;;;;13.80;9.70;;;;;;;-128.00;-1.00;-1.00;102603;1264;1013304;-69
2023/06/14 10:27:23;;;;;;;13.40;8.70;;;;;;;-128.00;-1.00;-1.00;102616;1267;1012403;-68
2023/06/14 10:29:53;;;;;;;12.60;8.70;;;;;;;-128.00;-1.00;-1.00;102482;1266;1012936;-70
2023/06/14 10:32:23;;;;;;;11.80;8.70;;;;;;;-128.00;-1.00;-1.00;102587;1277;1010169;-67
2023/06/14 10:35:04;;;;;;;11.10;8.40;;;;;;;-128.00;-1.00;-1.00;102598;1267;1011259;-66
2023/06/14 10:37:31;;;;;;;;;;;;;;;-128.00;-1.00;-1.00;102499;1267;1013019;-65
2023/06/14 10:39:58;;;;;;;10.40;8.00;;;;;;;-128.00;-1.00;-1.00;102535;1264;1002976;-66
2023/06/14 10:42:32;;;;;;;11.20;7.70;;;;;;;-128.00;-1.00;-1.00;102520;1263;1003320;-66
2023/06/14 10:45:01;;;;;;;9.50;6.90;;;;;;;-128.00;-1.00;-1.00;102367;1264;1010790;-66
2023/06/14 10:47:34;;;;;;;10.10;8.20;;;;;;;-128.00;-1.00;-1.00;102379;1264;1011897;-66
2023/06/14 10:50:02;;;;;;;10.30;7.80;;;;;;;-128.00;-1.00;-1.00;102258;1263;1013598;-80
2023/06/14 10:52:35;;;;;;;10.30;8.00;;;;;;;-128.00;-1.00;-1.00;102428;1264;1003183;-73
2023/06/14 10:55:17;;;;;;;10.80;8.50;;;;;;;-128.00;-1.00;-1.00;102612;1263;1012856;-71
2023/06/14 10:57:56;;;;;;;11.00;8.20;;;;;;;-128.00;-1.00;-1.00;102585;1264;1010432;-74
2023/06/14 11:00:26;;;;;;;10.20;8.20;;;;;;;-128.00;-1.00;-1.00;102461;1270;1012072;-66
2023/06/14 11:03:27;;;;;;;10.80;8.10;;;;;;;-128.00;-1.00;-1.00;103017;1257;1012661;-65
2023/06/14 11:05:56;;;;;;;11.50;7.80;;;;;;;-128.00;-1.00;-1.00;102807;1260;1012174;-68
2023/06/14 11:08:40;;;;;;;11.20;7.90;;;;;;;-128.00;-1.00;-1.00;102695;1257;1012362;-70
2023/06/14 11:11:09;;;;;;;10.00;7.30;;;;;;;-128.00;-1.00;-1.00;102949;1260;1009715;-67
2023/06/14 11:13:38;;;;;;;10.20;7.50;;;;;;;-128.00;-1.00;-1.00;103104;1257;1010461;-67
2023/06/14 11:16:17;;;;;;;9.10;7.20;;;;;;;-128.00;-1.00;-1.00;102718;1260;1012960;-68
2023/06/14 11:18:49;;;;;;;9.50;7.60;;;;;;;-128.00;-1.00;-1.00;102765;1259;1012682;-69